Terminal Aerodrome Forecast
Issued by NWS Lake Charles, LA

Home | Current Version | Previous Version | Text Only | Print | Product List | Glossary On
Versions: 1 2 3 4 5 6 7 8 9 10 11 12 13 14 15 16 17 18 19 20 21
098
FTUS44 KLCH 231726
TAFARA
TAF
KARA 231726Z 2318/2418 36009KT P6SM SCT022 BKN035
     FM232100 33008KT P6SM BKN050
     FM240400 33006KT P6SM OVC025 PROB30 2404/2409 4SM -TSRA
      BKN015CB
     FM241500 33013G20KT P6SM SKC=

USA.gov is the U.S. government's official web portal to all federal, state and local government web resources and services.